sensor_id;sensor_type;location;lat;lon;timestamp;temperature;humidity
68011;DHT22;54794;48.348;7.878;2023-02-28T00:01:46;4.70;47.90
68011;DHT22;54794;48.348;7.878;2023-02-28T00:04:13;4.60;48.00
68011;DHT22;54794;48.348;7.878;2023-02-28T00:06:40;4.40;47.90
68011;DHT22;54794;48.348;7.878;2023-02-28T00:09:08;4.50;48.40
68011;DHT22;54794;48.348;7.878;2023-02-28T00:11:42;4.50;48.50
68011;DHT22;54794;48.348;7.878;2023-02-28T00:14:09;4.10;47.70
68011;DHT22;54794;48.348;7.878;2023-02-28T00:16:36;4.30;47.90
68011;DHT22;54794;48.348;7.878;2023-02-28T00:19:03;4.50;47.90
68011;DHT22;54794;48.348;7.878;2023-02-28T00:21:30;4.60;48.00
68011;DHT22;54794;48.348;7.878;2023-02-28T00:23:57;5.00;48.20
68011;DHT22;54794;48.348;7.878;2023-02-28T00:26:24;4.50;48.00
68011;DHT22;54794;48.348;7.878;2023-02-28T00:28:52;4.80;48.10
68011;DHT22;54794;48.348;7.878;2023-02-28T00:31:19;4.00;47.80
68011;DHT22;54794;48.348;7.878;2023-02-28T00:33:46;4.30;47.90
68011;DHT22;54794;48.348;7.878;2023-02-28T00:36:13;3.80;47.70
68011;DHT22;54794;48.348;7.878;2023-02-28T00:38:40;4.50;48.00
68011;DHT22;54794;48.348;7.878;2023-02-28T00:41:08;4.30;47.90
68011;DHT22;54794;48.348;7.878;2023-02-28T00:43:37;4.00;47.80
68011;DHT22;54794;48.348;7.878;2023-02-28T00:46:05;4.70;48.20
68011;DHT22;54794;48.348;7.878;2023-02-28T00:48:33;3.80;47.80
68011;DHT22;54794;48.348;7.878;2023-02-28T00:51:00;4.50;48.00
68011;DHT22;54794;48.348;7.878;2023-02-28T00:53:28;4.10;47.90
68011;DHT22;54794;48.348;7.878;2023-02-28T00:55:56;4.50;48.20
68011;DHT22;54794;48.348;7.878;2023-02-28T00:58:23;4.40;48.20
68011;DHT22;54794;48.348;7.878;2023-02-28T01:00:51;3.60;47.80
68011;DHT22;54794;48.348;7.878;2023-02-28T01:03:20;4.30;48.10
68011;DHT22;54794;48.348;7.878;2023-02-28T01:05:49;3.70;47.80
68011;DHT22;54794;48.348;7.878;2023-02-28T01:08:16;4.30;48.30
68011;DHT22;54794;48.348;7.878;2023-02-28T01:10:43;4.50;48.50
68011;DHT22;54794;48.348;7.878;2023-02-28T01:13:11;3.50;48.10
68011;DHT22;54794;48.348;7.878;2023-02-28T01:15:43;4.30;48.40
68011;DHT22;54794;48.348;7.878;2023-02-28T01:18:15;4.10;48.40
68011;DHT22;54794;48.348;7.878;2023-02-28T01:20:42;3.60;48.20
68011;DHT22;54794;48.348;7.878;2023-02-28T01:23:10;4.10;48.50
68011;DHT22;54794;48.348;7.878;2023-02-28T01:25:37;4.20;49.00
68011;DHT22;54794;48.348;7.878;2023-02-28T01:28:05;4.20;48.60
68011;DHT22;54794;48.348;7.878;2023-02-28T01:30:32;3.60;48.20
68011;DHT22;54794;48.348;7.878;2023-02-28T01:32:59;4.30;48.60
68011;DHT22;54794;48.348;7.878;2023-02-28T01:35:27;4.20;48.70
68011;DHT22;54794;48.348;7.878;2023-02-28T01:37:54;4.10;48.60
68011;DHT22;54794;48.348;7.878;2023-02-28T01:40:26;4.40;48.80
68011;DHT22;54794;48.348;7.878;2023-02-28T01:42:53;4.40;48.80
68011;DHT22;54794;48.348;7.878;2023-02-28T01:47:57;4.10;48.70
68011;DHT22;54794;48.348;7.878;2023-02-28T01:50:31;3.60;48.50
68011;DHT22;54794;48.348;7.878;2023-02-28T01:53:07;3.60;48.40
68011;DHT22;54794;48.348;7.878;2023-02-28T01:55:37;4.30;48.80
68011;DHT22;54794;48.348;7.878;2023-02-28T01:58:06;3.50;48.50
68011;DHT22;54794;48.348;7.878;2023-02-28T02:00:35;3.90;48.60
68011;DHT22;54794;48.348;7.878;2023-02-28T02:03:08;3.60;48.60
68011;DHT22;54794;48.348;7.878;2023-02-28T02:05:39;4.40;48.90
68011;DHT22;54794;48.348;7.878;2023-02-28T02:08:10;3.80;48.60
68011;DHT22;54794;48.348;7.878;2023-02-28T02:10:51;4.30;48.90
68011;DHT22;54794;48.348;7.878;2023-02-28T02:17:04;3.70;48.60
68011;DHT22;54794;48.348;7.878;2023-02-28T02:25:48;3.60;48.60
68011;DHT22;54794;48.348;7.878;2023-02-28T02:31:56;3.60;48.60
68011;DHT22;54794;48.348;7.878;2023-02-28T02:46:36;3.60;48.80
68011;DHT22;54794;48.348;7.878;2023-02-28T02:49:10;3.70;48.80
68011;DHT22;54794;48.348;7.878;2023-02-28T02:51:42;3.60;48.70
68011;DHT22;54794;48.348;7.878;2023-02-28T02:54:17;3.60;48.80
68011;DHT22;54794;48.348;7.878;2023-02-28T02:56:49;3.70;48.90
68011;DHT22;54794;48.348;7.878;2023-02-28T02:59:20;3.60;48.80
68011;DHT22;54794;48.348;7.878;2023-02-28T03:01:55;4.50;49.30
68011;DHT22;54794;48.348;7.878;2023-02-28T03:04:31;3.70;48.90
68011;DHT22;54794;48.348;7.878;2023-02-28T03:07:02;3.50;48.90
68011;DHT22;54794;48.348;7.878;2023-02-28T03:10:02;3.50;49.00
68011;DHT22;54794;48.348;7.878;2023-02-28T03:13:07;3.60;49.20
68011;DHT22;54794;48.348;7.878;2023-02-28T03:16:04;3.90;49.30
68011;DHT22;54794;48.348;7.878;2023-02-28T03:19:10;3.50;49.00
68011;DHT22;54794;48.348;7.878;2023-02-28T03:27:24;4.20;49.50
68011;DHT22;54794;48.348;7.878;2023-02-28T03:30:27;3.60;49.10
68011;DHT22;54794;48.348;7.878;2023-02-28T03:35:48;3.60;49.20
68011;DHT22;54794;48.348;7.878;2023-02-28T03:38:33;3.50;49.70
68011;DHT22;54794;48.348;7.878;2023-02-28T03:41:27;3.50;49.20
68011;DHT22;54794;48.348;7.878;2023-02-28T03:44:15;3.90;49.50
68011;DHT22;54794;48.348;7.878;2023-02-28T03:46:52;4.30;49.70
68011;DHT22;54794;48.348;7.878;2023-02-28T03:49:35;3.60;49.30
68011;DHT22;54794;48.348;7.878;2023-02-28T03:52:10;3.60;49.30
68011;DHT22;54794;48.348;7.878;2023-02-28T03:54:50;4.30;49.60
68011;DHT22;54794;48.348;7.878;2023-02-28T03:57:43;3.30;49.20
68011;DHT22;54794;48.348;7.878;2023-02-28T04:00:24;3.50;49.50
68011;DHT22;54794;48.348;7.878;2023-02-28T04:02:56;4.40;49.70
68011;DHT22;54794;48.348;7.878;2023-02-28T04:05:44;3.90;49.40
68011;DHT22;54794;48.348;7.878;2023-02-28T04:09:59;3.80;49.40
68011;DHT22;54794;48.348;7.878;2023-02-28T04:17:00;3.50;49.40
68011;DHT22;54794;48.348;7.878;2023-02-28T04:19:28;3.50;49.40
68011;DHT22;54794;48.348;7.878;2023-02-28T04:21:55;3.60;49.40
68011;DHT22;54794;48.348;7.878;2023-02-28T04:24:25;4.20;49.80
68011;DHT22;54794;48.348;7.878;2023-02-28T04:26:55;4.00;49.70
68011;DHT22;54794;48.348;7.878;2023-02-28T04:29:29;4.00;50.30
68011;DHT22;54794;48.348;7.878;2023-02-28T04:32:01;3.40;49.40
68011;DHT22;54794;48.348;7.878;2023-02-28T04:34:30;3.90;49.80
68011;DHT22;54794;48.348;7.878;2023-02-28T04:36:58;3.80;49.80
68011;DHT22;54794;48.348;7.878;2023-02-28T04:39:43;3.40;49.60
68011;DHT22;54794;48.348;7.878;2023-02-28T04:42:11;4.00;49.90
68011;DHT22;54794;48.348;7.878;2023-02-28T04:44:38;4.00;49.90
68011;DHT22;54794;48.348;7.878;2023-02-28T04:47:05;3.90;50.00
68011;DHT22;54794;48.348;7.878;2023-02-28T04:49:33;3.80;50.00
68011;DHT22;54794;48.348;7.878;2023-02-28T04:52:00;4.00;50.00
68011;DHT22;54794;48.348;7.878;2023-02-28T04:54:27;3.80;50.00
68011;DHT22;54794;48.348;7.878;2023-02-28T04:56:54;3.30;49.70
68011;DHT22;54794;48.348;7.878;2023-02-28T04:59:22;4.00;50.10
68011;DHT22;54794;48.348;7.878;2023-02-28T05:01:49;3.40;49.80
68011;DHT22;54794;48.348;7.878;2023-02-28T05:04:18;3.40;49.80
68011;DHT22;54794;48.348;7.878;2023-02-28T05:06:45;3.70;50.00
68011;DHT22;54794;48.348;7.878;2023-02-28T05:09:12;4.00;50.20
68011;DHT22;54794;48.348;7.878;2023-02-28T05:11:40;3.30;49.90
68011;DHT22;54794;48.348;7.878;2023-02-28T05:14:09;4.30;50.40
68011;DHT22;54794;48.348;7.878;2023-02-28T05:16:38;4.10;50.20
68011;DHT22;54794;48.348;7.878;2023-02-28T05:19:05;3.30;49.80
68011;DHT22;54794;48.348;7.878;2023-02-28T05:21:35;4.10;50.20
68011;DHT22;54794;48.348;7.878;2023-02-28T05:24:07;3.20;49.80
68011;DHT22;54794;48.348;7.878;2023-02-28T05:26:39;3.30;49.90
68011;DHT22;54794;48.348;7.878;2023-02-28T05:29:08;3.70;50.10
68011;DHT22;54794;48.348;7.878;2023-02-28T05:31:35;4.00;50.30
68011;DHT22;54794;48.348;7.878;2023-02-28T05:34:03;3.20;50.40
68011;DHT22;54794;48.348;7.878;2023-02-28T05:36:31;4.10;50.50
68011;DHT22;54794;48.348;7.878;2023-02-28T05:38:58;3.60;50.30
68011;DHT22;54794;48.348;7.878;2023-02-28T05:41:25;3.60;50.20
68011;DHT22;54794;48.348;7.878;2023-02-28T05:43:53;3.80;50.40
68011;DHT22;54794;48.348;7.878;2023-02-28T05:46:20;3.90;50.50
68011;DHT22;54794;48.348;7.878;2023-02-28T05:48:48;3.80;50.40
68011;DHT22;54794;48.348;7.878;2023-02-28T05:51:15;3.80;50.90
68011;DHT22;54794;48.348;7.878;2023-02-28T05:53:43;3.80;50.40
68011;DHT22;54794;48.348;7.878;2023-02-28T05:56:10;3.00;50.00
68011;DHT22;54794;48.348;7.878;2023-02-28T05:58:37;3.90;50.50
68011;DHT22;54794;48.348;7.878;2023-02-28T06:01:44;3.80;50.60
68011;DHT22;54794;48.348;7.878;2023-02-28T06:04:16;3.50;50.60
68011;DHT22;54794;48.348;7.878;2023-02-28T06:06:59;3.10;50.20
68011;DHT22;54794;48.348;7.878;2023-02-28T06:09:32;3.00;50.30
68011;DHT22;54794;48.348;7.878;2023-02-28T06:12:44;3.90;50.70
68011;DHT22;54794;48.348;7.878;2023-02-28T06:15:30;3.10;50.30
68011;DHT22;54794;48.348;7.878;2023-02-28T06:18:04;3.20;50.20
68011;DHT22;54794;48.348;7.878;2023-02-28T06:24:31;3.10;50.40
68011;DHT22;54794;48.348;7.878;2023-02-28T06:27:02;3.60;50.50
68011;DHT22;54794;48.348;7.878;2023-02-28T06:29:39;3.10;50.40
68011;DHT22;54794;48.348;7.878;2023-02-28T06:32:19;3.20;50.50
68011;DHT22;54794;48.348;7.878;2023-02-28T06:34:59;3.50;50.70
68011;DHT22;54794;48.348;7.878;2023-02-28T06:37:43;3.40;50.70
68011;DHT22;54794;48.348;7.878;2023-02-28T06:40:16;3.10;50.60
68011;DHT22;54794;48.348;7.878;2023-02-28T06:42:45;3.00;50.50
68011;DHT22;54794;48.348;7.878;2023-02-28T06:45:21;3.80;51.00
68011;DHT22;54794;48.348;7.878;2023-02-28T06:48:01;3.10;50.70
68011;DHT22;54794;48.348;7.878;2023-02-28T06:50:31;3.10;50.70
68011;DHT22;54794;48.348;7.878;2023-02-28T06:53:08;3.10;51.20
68011;DHT22;54794;48.348;7.878;2023-02-28T06:55:43;3.10;50.80
68011;DHT22;54794;48.348;7.878;2023-02-28T06:58:21;3.50;50.80
68011;DHT22;54794;48.348;7.878;2023-02-28T07:01:04;3.20;50.80
68011;DHT22;54794;48.348;7.878;2023-02-28T07:04:16;3.00;50.50
68011;DHT22;54794;48.348;7.878;2023-02-28T07:07:10;3.30;50.70
68011;DHT22;54794;48.348;7.878;2023-02-28T07:09:48;3.30;50.70
68011;DHT22;54794;48.348;7.878;2023-02-28T07:12:46;3.10;50.70
68011;DHT22;54794;48.348;7.878;2023-02-28T07:15:43;3.20;50.70
68011;DHT22;54794;48.348;7.878;2023-02-28T07:18:41;2.90;50.70
68011;DHT22;54794;48.348;7.878;2023-02-28T07:21:10;3.80;51.20
68011;DHT22;54794;48.348;7.878;2023-02-28T07:23:46;3.80;51.10
68011;DHT22;54794;48.348;7.878;2023-02-28T07:26:20;3.50;51.10
68011;DHT22;54794;48.348;7.878;2023-02-28T07:28:53;3.20;51.00
68011;DHT22;54794;48.348;7.878;2023-02-28T07:31:23;3.20;50.90
68011;DHT22;54794;48.348;7.878;2023-02-28T07:33:50;3.40;51.10
68011;DHT22;54794;48.348;7.878;2023-02-28T07:36:24;3.70;51.20
68011;DHT22;54794;48.348;7.878;2023-02-28T07:39:03;3.20;51.50
68011;DHT22;54794;48.348;7.878;2023-02-28T07:41:50;4.20;51.60
68011;DHT22;54794;48.348;7.878;2023-02-28T07:44:16;3.60;51.20
68011;DHT22;54794;48.348;7.878;2023-02-28T07:46:43;4.00;51.40
68011;DHT22;54794;48.348;7.878;2023-02-28T07:49:10;4.00;51.50
68011;DHT22;54794;48.348;7.878;2023-02-28T07:51:37;2.90;50.90
68011;DHT22;54794;48.348;7.878;2023-02-28T07:54:04;4.10;51.70
68011;DHT22;54794;48.348;7.878;2023-02-28T07:56:31;3.40;51.30
68011;DHT22;54794;48.348;7.878;2023-02-28T07:59:02;3.90;52.10
68011;DHT22;54794;48.348;7.878;2023-02-28T08:01:29;3.40;51.30
68011;DHT22;54794;48.348;7.878;2023-02-28T08:03:59;3.40;51.30
68011;DHT22;54794;48.348;7.878;2023-02-28T08:06:26;3.70;51.50
68011;DHT22;54794;48.348;7.878;2023-02-28T08:08:53;4.10;51.70
68011;DHT22;54794;48.348;7.878;2023-02-28T08:11:20;4.20;51.70
68011;DHT22;54794;48.348;7.878;2023-02-28T08:13:47;3.60;51.40
68011;DHT22;54794;48.348;7.878;2023-02-28T08:16:14;4.00;51.40
68011;DHT22;54794;48.348;7.878;2023-02-28T08:18:45;3.60;51.30
68011;DHT22;54794;48.348;7.878;2023-02-28T08:21:12;4.60;51.80
68011;DHT22;54794;48.348;7.878;2023-02-28T08:23:39;4.30;51.80
68011;DHT22;54794;48.348;7.878;2023-02-28T08:26:06;4.20;51.70
68011;DHT22;54794;48.348;7.878;2023-02-28T08:28:33;3.60;51.50
68011;DHT22;54794;48.348;7.878;2023-02-28T08:31:11;4.50;52.00
68011;DHT22;54794;48.348;7.878;2023-02-28T08:33:41;3.60;51.50
68011;DHT22;54794;48.348;7.878;2023-02-28T08:36:09;4.30;51.90
68011;DHT22;54794;48.348;7.878;2023-02-28T08:38:38;4.70;52.10
68011;DHT22;54794;48.348;7.878;2023-02-28T08:41:10;3.80;51.70
68011;DHT22;54794;48.348;7.878;2023-02-28T08:43:39;4.60;52.10
68011;DHT22;54794;48.348;7.878;2023-02-28T08:46:07;3.70;51.50
68011;DHT22;54794;48.348;7.878;2023-02-28T08:48:35;4.60;52.00
68011;DHT22;54794;48.348;7.878;2023-02-28T08:51:12;4.50;51.90
68011;DHT22;54794;48.348;7.878;2023-02-28T08:53:42;4.80;52.20
68011;DHT22;54794;48.348;7.878;2023-02-28T08:56:14;4.70;52.00
68011;DHT22;54794;48.348;7.878;2023-02-28T08:58:46;3.80;51.60
68011;DHT22;54794;48.348;7.878;2023-02-28T09:01:17;3.90;51.70
68011;DHT22;54794;48.348;7.878;2023-02-28T09:03:50;3.70;51.60
68011;DHT22;54794;48.348;7.878;2023-02-28T09:06:20;4.40;52.00
68011;DHT22;54794;48.348;7.878;2023-02-28T09:08:52;4.40;51.90
68011;DHT22;54794;48.348;7.878;2023-02-28T09:11:19;4.60;52.10
68011;DHT22;54794;48.348;7.878;2023-02-28T09:13:48;4.30;52.00
68011;DHT22;54794;48.348;7.878;2023-02-28T09:16:16;3.70;51.40
68011;DHT22;54794;48.348;7.878;2023-02-28T09:18:44;4.40;51.80
68011;DHT22;54794;48.348;7.878;2023-02-28T09:21:16;4.60;51.90
68011;DHT22;54794;48.348;7.878;2023-02-28T09:23:49;4.50;51.90
68011;DHT22;54794;48.348;7.878;2023-02-28T09:26:25;4.60;51.90
68011;DHT22;54794;48.348;7.878;2023-02-28T09:29:08;4.00;51.70
68011;DHT22;54794;48.348;7.878;2023-02-28T09:31:35;4.60;52.00
68011;DHT22;54794;48.348;7.878;2023-02-28T09:34:03;4.50;52.10
68011;DHT22;54794;48.348;7.878;2023-02-28T09:36:30;4.70;52.00
68011;DHT22;54794;48.348;7.878;2023-02-28T09:39:11;4.90;52.20
68011;DHT22;54794;48.348;7.878;2023-02-28T09:41:42;4.40;52.00
68011;DHT22;54794;48.348;7.878;2023-02-28T09:44:28;4.80;52.20
68011;DHT22;54794;48.348;7.878;2023-02-28T09:47:31;4.10;52.00
68011;DHT22;54794;48.348;7.878;2023-02-28T09:52:54;4.10;52.10
68011;DHT22;54794;48.348;7.878;2023-02-28T10:10:35;4.30;52.00
68011;DHT22;54794;48.348;7.878;2023-02-28T10:16:37;4.30;51.80
68011;DHT22;54794;48.348;7.878;2023-02-28T10:22:03;4.40;51.80
68011;DHT22;54794;48.348;7.878;2023-02-28T10:24:46;4.40;51.90
68011;DHT22;54794;48.348;7.878;2023-02-28T10:27:30;4.40;51.90
68011;DHT22;54794;48.348;7.878;2023-02-28T10:29:59;4.40;51.80
68011;DHT22;54794;48.348;7.878;2023-02-28T10:32:35;4.60;52.00
68011;DHT22;54794;48.348;7.878;2023-02-28T10:35:20;4.50;52.10
68011;DHT22;54794;48.348;7.878;2023-02-28T10:37:53;4.50;52.00
68011;DHT22;54794;48.348;7.878;2023-02-28T10:42:59;4.60;51.80
68011;DHT22;54794;48.348;7.878;2023-02-28T10:45:30;4.60;52.00
68011;DHT22;54794;48.348;7.878;2023-02-28T10:48:04;4.70;51.90
68011;DHT22;54794;48.348;7.878;2023-02-28T10:50:53;4.70;51.90
68011;DHT22;54794;48.348;7.878;2023-02-28T10:56:16;5.10;52.20
68011;DHT22;54794;48.348;7.878;2023-02-28T10:58:54;5.10;52.30
68011;DHT22;54794;48.348;7.878;2023-02-28T11:01:41;5.00;52.00
68011;DHT22;54794;48.348;7.878;2023-02-28T11:07:21;4.90;52.00
68011;DHT22;54794;48.348;7.878;2023-02-28T11:09:53;5.20;52.00
68011;DHT22;54794;48.348;7.878;2023-02-28T11:12:30;5.40;52.10
68011;DHT22;54794;48.348;7.878;2023-02-28T11:15:25;5.00;51.90
68011;DHT22;54794;48.348;7.878;2023-02-28T11:20:46;5.10;51.90
68011;DHT22;54794;48.348;7.878;2023-02-28T11:23:24;5.30;52.00
68011;DHT22;54794;48.348;7.878;2023-02-28T11:26:01;5.50;52.10
68011;DHT22;54794;48.348;7.878;2023-02-28T11:28:35;5.30;52.00
68011;DHT22;54794;48.348;7.878;2023-02-28T11:33:54;6.00;52.20
68011;DHT22;54794;48.348;7.878;2023-02-28T11:36:30;5.30;51.70
68011;DHT22;54794;48.348;7.878;2023-02-28T11:39:10;5.40;51.70
68011;DHT22;54794;48.348;7.878;2023-02-28T11:48:04;5.50;51.50
68011;DHT22;54794;48.348;7.878;2023-02-28T11:51:10;5.50;51.50
68011;DHT22;54794;48.348;7.878;2023-02-28T11:56:48;5.60;51.30
68011;DHT22;54794;48.348;7.878;2023-02-28T11:59:43;5.10;51.00
68011;DHT22;54794;48.348;7.878;2023-02-28T12:02:41;5.70;51.30
68011;DHT22;54794;48.348;7.878;2023-02-28T12:05:46;5.70;51.20
68011;DHT22;54794;48.348;7.878;2023-02-28T12:11:50;5.70;51.10
68011;DHT22;54794;48.348;7.878;2023-02-28T12:14:38;6.00;51.20
68011;DHT22;54794;48.348;7.878;2023-02-28T12:28:53;5.90;51.00
68011;DHT22;54794;48.348;7.878;2023-02-28T12:31:33;6.00;51.10
68011;DHT22;54794;48.348;7.878;2023-02-28T12:34:11;6.00;51.20
68011;DHT22;54794;48.348;7.878;2023-02-28T12:36:42;6.10;51.10
68011;DHT22;54794;48.348;7.878;2023-02-28T12:39:20;6.30;51.20
68011;DHT22;54794;48.348;7.878;2023-02-28T12:42:00;6.10;51.00
68011;DHT22;54794;48.348;7.878;2023-02-28T12:44:35;6.10;50.90
68011;DHT22;54794;48.348;7.878;2023-02-28T12:47:14;6.10;51.00
68011;DHT22;54794;48.348;7.878;2023-02-28T12:50:20;6.20;50.90
68011;DHT22;54794;48.348;7.878;2023-02-28T12:53:31;6.20;51.00
68011;DHT22;54794;48.348;7.878;2023-02-28T12:59:40;6.30;50.90
68011;DHT22;54794;48.348;7.878;2023-02-28T13:09:13;6.40;50.80
68011;DHT22;54794;48.348;7.878;2023-02-28T13:11:47;6.30;50.70
68011;DHT22;54794;48.348;7.878;2023-02-28T13:14:25;6.40;50.90
68011;DHT22;54794;48.348;7.878;2023-02-28T13:16:59;6.50;50.90
68011;DHT22;54794;48.348;7.878;2023-02-28T13:22:42;7.00;51.10
68011;DHT22;54794;48.348;7.878;2023-02-28T13:26:07;6.60;50.70
68011;DHT22;54794;48.348;7.878;2023-02-28T13:29:00;6.70;50.80
68011;DHT22;54794;48.348;7.878;2023-02-28T13:39:57;6.90;51.00
68011;DHT22;54794;48.348;7.878;2023-02-28T13:45:30;7.10;51.30
68011;DHT22;54794;48.348;7.878;2023-02-28T13:48:17;7.20;51.10
68011;DHT22;54794;48.348;7.878;2023-02-28T13:51:40;7.30;50.90
68011;DHT22;54794;48.348;7.878;2023-02-28T14:01:13;7.90;51.30
68011;DHT22;54794;48.348;7.878;2023-02-28T14:07:25;8.40;51.20
68011;DHT22;54794;48.348;7.878;2023-02-28T14:10:46;8.60;51.10
68011;DHT22;54794;48.348;7.878;2023-02-28T14:13:50;8.80;50.50
68011;DHT22;54794;48.348;7.878;2023-02-28T14:16:23;9.00;50.40
68011;DHT22;54794;48.348;7.878;2023-02-28T14:19:04;9.00;50.30
68011;DHT22;54794;48.348;7.878;2023-02-28T14:29:12;9.20;49.70
68011;DHT22;54794;48.348;7.878;2023-02-28T14:33:00;9.20;49.90
68011;DHT22;54794;48.348;7.878;2023-02-28T14:38:54;9.40;49.80
68011;DHT22;54794;48.348;7.878;2023-02-28T14:41:43;9.50;50.10
68011;DHT22;54794;48.348;7.878;2023-02-28T14:44:31;9.60;49.60
68011;DHT22;54794;48.348;7.878;2023-02-28T14:53:59;9.70;49.70
68011;DHT22;54794;48.348;7.878;2023-02-28T14:57:21;9.90;49.50
68011;DHT22;54794;48.348;7.878;2023-02-28T15:03:56;10.10;49.00
68011;DHT22;54794;48.348;7.878;2023-02-28T15:09:54;10.00;49.30
68011;DHT22;54794;48.348;7.878;2023-02-28T15:13:11;10.00;49.20
68011;DHT22;54794;48.348;7.878;2023-02-28T15:16:23;10.00;49.10
68011;DHT22;54794;48.348;7.878;2023-02-28T15:19:49;10.10;48.80
68011;DHT22;54794;48.348;7.878;2023-02-28T15:23:16;10.20;48.80
68011;DHT22;54794;48.348;7.878;2023-02-28T15:26:47;10.20;48.70
68011;DHT22;54794;48.348;7.878;2023-02-28T15:30:54;10.30;48.70
68011;DHT22;54794;48.348;7.878;2023-02-28T15:34:26;10.30;48.60
68011;DHT22;54794;48.348;7.878;2023-02-28T15:37:27;10.30;48.60
68011;DHT22;54794;48.348;7.878;2023-02-28T15:40:17;10.40;48.50
68011;DHT22;54794;48.348;7.878;2023-02-28T15:43:18;10.40;48.50
68011;DHT22;54794;48.348;7.878;2023-02-28T15:46:07;10.50;48.60
68011;DHT22;54794;48.348;7.878;2023-02-28T15:48:54;10.50;48.70
68011;DHT22;54794;48.348;7.878;2023-02-28T15:51:29;10.50;48.70
68011;DHT22;54794;48.348;7.878;2023-02-28T15:54:16;10.50;48.60
68011;DHT22;54794;48.348;7.878;2023-02-28T16:00:35;10.50;48.30
68011;DHT22;54794;48.348;7.878;2023-02-28T16:03:37;10.60;49.00
68011;DHT22;54794;48.348;7.878;2023-02-28T16:09:27;10.70;47.90
68011;DHT22;54794;48.348;7.878;2023-02-28T16:12:31;10.60;48.30
68011;DHT22;54794;48.348;7.878;2023-02-28T16:15:37;10.60;47.60
68011;DHT22;54794;48.348;7.878;2023-02-28T16:18:40;10.60;48.00
68011;DHT22;54794;48.348;7.878;2023-02-28T16:21:12;10.50;47.70
68011;DHT22;54794;48.348;7.878;2023-02-28T16:23:45;10.50;47.60
68011;DHT22;54794;48.348;7.878;2023-02-28T16:26:30;10.40;47.60
68011;DHT22;54794;48.348;7.878;2023-02-28T16:29:04;10.30;47.20
68011;DHT22;54794;48.348;7.878;2023-02-28T16:31:46;10.20;47.40
68011;DHT22;54794;48.348;7.878;2023-02-28T16:34:31;10.20;47.50
68011;DHT22;54794;48.348;7.878;2023-02-28T16:37:09;10.10;47.40
68011;DHT22;54794;48.348;7.878;2023-02-28T16:39:54;10.10;47.00
68011;DHT22;54794;48.348;7.878;2023-02-28T16:42:58;9.90;47.30
68011;DHT22;54794;48.348;7.878;2023-02-28T16:46:17;9.80;47.40
68011;DHT22;54794;48.348;7.878;2023-02-28T16:49:22;9.70;47.30
68011;DHT22;54794;48.348;7.878;2023-02-28T16:52:00;9.60;47.30
68011;DHT22;54794;48.348;7.878;2023-02-28T16:54:41;9.50;47.60
68011;DHT22;54794;48.348;7.878;2023-02-28T16:57:20;9.40;47.60
68011;DHT22;54794;48.348;7.878;2023-02-28T16:59:57;9.30;47.70
68011;DHT22;54794;48.348;7.878;2023-02-28T17:02:55;9.30;47.70
68011;DHT22;54794;48.348;7.878;2023-02-28T17:06:18;9.10;47.50
68011;DHT22;54794;48.348;7.878;2023-02-28T17:09:32;9.00;47.50
68011;DHT22;54794;48.348;7.878;2023-02-28T17:12:15;8.90;47.20
68011;DHT22;54794;48.348;7.878;2023-02-28T17:14:45;8.80;47.80
68011;DHT22;54794;48.348;7.878;2023-02-28T17:17:27;8.70;47.80
68011;DHT22;54794;48.348;7.878;2023-02-28T17:20:02;8.60;47.90
68011;DHT22;54794;48.348;7.878;2023-02-28T17:22:36;8.50;47.80
68011;DHT22;54794;48.348;7.878;2023-02-28T17:25:18;8.50;48.00
68011;DHT22;54794;48.348;7.878;2023-02-28T17:27:57;8.40;47.90
68011;DHT22;54794;48.348;7.878;2023-02-28T17:30:37;8.30;47.80
68011;DHT22;54794;48.348;7.878;2023-02-28T17:33:34;8.20;48.10
68011;DHT22;54794;48.348;7.878;2023-02-28T17:36:18;8.10;48.00
68011;DHT22;54794;48.348;7.878;2023-02-28T17:39:16;8.10;48.10
68011;DHT22;54794;48.348;7.878;2023-02-28T17:41:59;8.00;47.80
68011;DHT22;54794;48.348;7.878;2023-02-28T17:44:35;8.00;47.90
68011;DHT22;54794;48.348;7.878;2023-02-28T17:47:01;7.90;48.00
68011;DHT22;54794;48.348;7.878;2023-02-28T17:49:32;7.90;48.10
68011;DHT22;54794;48.348;7.878;2023-02-28T17:51:59;7.80;48.30
68011;DHT22;54794;48.348;7.878;2023-02-28T17:54:26;7.70;48.20
68011;DHT22;54794;48.348;7.878;2023-02-28T17:56:53;8.20;48.40
68011;DHT22;54794;48.348;7.878;2023-02-28T17:59:20;7.80;48.30
68011;DHT22;54794;48.348;7.878;2023-02-28T18:01:47;7.60;48.40
68011;DHT22;54794;48.348;7.878;2023-02-28T18:04:14;7.50;48.40
68011;DHT22;54794;48.348;7.878;2023-02-28T18:06:44;7.40;48.30
68011;DHT22;54794;48.348;7.878;2023-02-28T18:09:22;7.40;48.30
68011;DHT22;54794;48.348;7.878;2023-02-28T18:11:50;7.30;48.30
68011;DHT22;54794;48.348;7.878;2023-02-28T18:14:20;7.70;48.60
68011;DHT22;54794;48.348;7.878;2023-02-28T18:16:50;7.10;48.40
68011;DHT22;54794;48.348;7.878;2023-02-28T18:19:19;7.10;48.50
68011;DHT22;54794;48.348;7.878;2023-02-28T18:21:49;7.50;48.70
68011;DHT22;54794;48.348;7.878;2023-02-28T18:24:20;7.30;48.60
68011;DHT22;54794;48.348;7.878;2023-02-28T18:26:48;6.90;48.50
68011;DHT22;54794;48.348;7.878;2023-02-28T18:29:23;7.10;48.60
68011;DHT22;54794;48.348;7.878;2023-02-28T18:31:52;6.80;48.50
68011;DHT22;54794;48.348;7.878;2023-02-28T18:34:22;7.10;48.80
68011;DHT22;54794;48.348;7.878;2023-02-28T18:36:51;6.70;48.60
68011;DHT22;54794;48.348;7.878;2023-02-28T18:39:19;7.30;49.00
68011;DHT22;54794;48.348;7.878;2023-02-28T18:41:46;6.70;48.80
68011;DHT22;54794;48.348;7.878;2023-02-28T18:44:14;7.20;49.00
68011;DHT22;54794;48.348;7.878;2023-02-28T18:46:47;6.60;48.70
68011;DHT22;54794;48.348;7.878;2023-02-28T18:49:15;7.10;49.00
68011;DHT22;54794;48.348;7.878;2023-02-28T18:51:42;6.60;48.70
68011;DHT22;54794;48.348;7.878;2023-02-28T18:54:12;6.50;48.60
68011;DHT22;54794;48.348;7.878;2023-02-28T18:56:41;6.80;48.80
68011;DHT22;54794;48.348;7.878;2023-02-28T18:59:08;6.40;48.70
68011;DHT22;54794;48.348;7.878;2023-02-28T19:01:37;6.30;48.80
68011;DHT22;54794;48.348;7.878;2023-02-28T19:04:04;6.40;48.90
68011;DHT22;54794;48.348;7.878;2023-02-28T19:06:32;6.50;49.00
68011;DHT22;54794;48.348;7.878;2023-02-28T19:09:01;6.20;48.90
68011;DHT22;54794;48.348;7.878;2023-02-28T19:11:31;6.20;49.00
68011;DHT22;54794;48.348;7.878;2023-02-28T19:14:00;6.20;49.00
68011;DHT22;54794;48.348;7.878;2023-02-28T19:16:28;6.30;49.00
68011;DHT22;54794;48.348;7.878;2023-02-28T19:18:56;6.10;48.90
68011;DHT22;54794;48.348;7.878;2023-02-28T19:21:24;6.30;49.00
68011;DHT22;54794;48.348;7.878;2023-02-28T19:23:51;6.30;49.10
68011;DHT22;54794;48.348;7.878;2023-02-28T19:26:20;6.40;49.20
68011;DHT22;54794;48.348;7.878;2023-02-28T19:28:49;6.20;49.00
68011;DHT22;54794;48.348;7.878;2023-02-28T19:31:17;5.90;49.10
68011;DHT22;54794;48.348;7.878;2023-02-28T19:33:47;6.00;49.10
68011;DHT22;54794;48.348;7.878;2023-02-28T19:36:15;5.80;49.00
68011;DHT22;54794;48.348;7.878;2023-02-28T19:38:42;5.90;49.10
68011;DHT22;54794;48.348;7.878;2023-02-28T19:41:12;5.80;49.10
68011;DHT22;54794;48.348;7.878;2023-02-28T19:43:40;5.80;49.10
68011;DHT22;54794;48.348;7.878;2023-02-28T19:46:09;5.90;49.30